sensor_id;sensor_type;location;lat;lon;timestamp;pressure;altitude;pressure_sealevel;temperature;humidity
44734;BME280;30462;52.446;-1.930;2022-07-29T00:00:18;100454.0586;;;;
44734;BME280;30462;52.446;-1.930;2022-07-29T00:01:19;100453.0313;;;;
44734;BME280;30462;52.446;-1.930;2022-07-29T00:02:18;100451.7148;;;;
44734;BME280;30462;52.446;-1.930;2022-07-29T00:03:18;100450.1914;;;;
44734;BME280;30462;52.446;-1.930;2022-07-29T00:04:18;100451.4219;;;;
44734;BME280;30462;52.446;-1.930;2022-07-29T00:05:18;100449.875;;;;
44734;BME280;30462;52.446;-1.930;2022-07-29T00:06:18;100451.3047;;;;
44734;BME280;30462;52.446;-1.930;2022-07-29T00:07:19;100451.9609;;;;
44734;BME280;30462;52.446;-1.930;2022-07-29T00:08:18;100449.9102;;;;
44734;BME280;30462;52.446;-1.930;2022-07-29T00:09:18;100449.8828;;;;
44734;BME280;30462;52.446;-1.930;2022-07-29T00:10:18;100447.8438;;;;
44734;BME280;30462;52.446;-1.930;2022-07-29T00:11:18;100450.8516;;;;
44734;BME280;30462;52.446;-1.930;2022-07-29T00:12:18;100449.5898;;;;
44734;BME280;30462;52.446;-1.930;2022-07-29T00:13:18;100452.1328;;;;
44734;BME280;30462;52.446;-1.930;2022-07-29T00:14:18;100450.1094;;;;
44734;BME280;30462;52.446;-1.930;2022-07-29T00:15:18;100451.5352;;;;
44734;BME280;30462;52.446;-1.930;2022-07-29T00:16:18;100447.5313;;;;
44734;BME280;30462;52.446;-1.930;2022-07-29T00:17:17;100446.7109;;;;
44734;BME280;30462;52.446;-1.930;2022-07-29T00:18:18;100446.2813;;;;
44734;BME280;30462;52.446;-1.930;2022-07-29T00:19:18;100450.0391;;;;
44734;BME280;30462;52.446;-1.930;2022-07-29T00:20:18;100446.7539;;;;
44734;BME280;30462;52.446;-1.930;2022-07-29T00:21:18;100449.418;;;;
44734;BME280;30462;52.446;-1.930;2022-07-29T00:22:18;100449.0703;;;;
44734;BME280;30462;52.446;-1.930;2022-07-29T00:23:18;100447.4258;;;;
44734;BME280;30462;52.446;-1.930;2022-07-29T00:24:18;100444.3555;;;;
44734;BME280;30462;52.446;-1.930;2022-07-29T00:25:18;100447.1797;;;;
44734;BME280;30462;52.446;-1.930;2022-07-29T00:26:17;100444.2344;;;;
44734;BME280;30462;52.446;-1.930;2022-07-29T00:27:18;100443.1445;;;;
44734;BME280;30462;52.446;-1.930;2022-07-29T00:28:18;100443.0977;;;;
44734;BME280;30462;52.446;-1.930;2022-07-29T00:29:18;100442.6953;;;;
44734;BME280;30462;52.446;-1.930;2022-07-29T00:30:18;100442.2695;;;;
44734;BME280;30462;52.446;-1.930;2022-07-29T00:31:17;100446.0742;;;;
44734;BME280;30462;52.446;-1.930;2022-07-29T00:32:18;100444.0508;;;;
44734;BME280;30462;52.446;-1.930;2022-07-29T00:33:18;100443.25;;;;
44734;BME280;30462;52.446;-1.930;2022-07-29T00:34:18;100444.0547;;;;
44734;BME280;30462;52.446;-1.930;2022-07-29T00:35:18;100445.7773;;;;
44734;BME280;30462;52.446;-1.930;2022-07-29T00:36:18;100445.1211;;;;
44734;BME280;30462;52.446;-1.930;2022-07-29T00:37:18;100443.9883;;;;
44734;BME280;30462;52.446;-1.930;2022-07-29T00:38:19;100440.1875;;;;
44734;BME280;30462;52.446;-1.930;2022-07-29T00:39:18;100442.8711;;;;
44734;BME280;30462;52.446;-1.930;2022-07-29T00:40:18;100444.9375;;;;
44734;BME280;30462;52.446;-1.930;2022-07-29T00:41:18;100443.3359;;;;
44734;BME280;30462;52.446;-1.930;2022-07-29T00:42:18;100442.8086;;;;
44734;BME280;30462;52.446;-1.930;2022-07-29T00:43:18;100444.9297;;;;
44734;BME280;30462;52.446;-1.930;2022-07-29T00:44:18;100448.418;;;;
44734;BME280;30462;52.446;-1.930;2022-07-29T00:45:18;100450.0586;;;;
44734;BME280;30462;52.446;-1.930;2022-07-29T00:46:18;100447.5039;;;;
44734;BME280;30462;52.446;-1.930;2022-07-29T00:47:17;100447.4805;;;;
44734;BME280;30462;52.446;-1.930;2022-07-29T00:48:18;100445.3477;;;;
44734;BME280;30462;52.446;-1.930;2022-07-29T00:49:18;100440.8516;;;;
44734;BME280;30462;52.446;-1.930;2022-07-29T00:50:18;100442.8281;;;;
44734;BME280;30462;52.446;-1.930;2022-07-29T00:51:18;100443.832;;;;
44734;BME280;30462;52.446;-1.930;2022-07-29T00:52:18;100440.8398;;;;
44734;BME280;30462;52.446;-1.930;2022-07-29T00:53:19;100442.0195;;;;
44734;BME280;30462;52.446;-1.930;2022-07-29T00:54:18;100442.2227;;;;
44734;BME280;30462;52.446;-1.930;2022-07-29T00:55:18;100441.2578;;;;
44734;BME280;30462;52.446;-1.930;2022-07-29T00:56:18;100441.5352;;;;
44734;BME280;30462;52.446;-1.930;2022-07-29T00:57:18;100441.3516;;;;
44734;BME280;30462;52.446;-1.930;2022-07-29T00:58:18;100443.0273;;;;
44734;BME280;30462;52.446;-1.930;2022-07-29T00:59:18;100441.2266;;;;
44734;BME280;30462;52.446;-1.930;2022-07-29T01:00:19;100442.5;;;;
44734;BME280;30462;52.446;-1.930;2022-07-29T01:01:18;100443.3711;;;;
44734;BME280;30462;52.446;-1.930;2022-07-29T01:02:18;100443.9063;;;;
44734;BME280;30462;52.446;-1.930;2022-07-29T01:03:18;100442.6914;;;;
44734;BME280;30462;52.446;-1.930;2022-07-29T01:04:18;100445.8711;;;;
44734;BME280;30462;52.446;-1.930;2022-07-29T01:05:18;100445.7227;;;;
44734;BME280;30462;52.446;-1.930;2022-07-29T01:06:18;100443.1914;;;;
44734;BME280;30462;52.446;-1.930;2022-07-29T01:07:18;100444.9063;;;;
44734;BME280;30462;52.446;-1.930;2022-07-29T01:08:18;100444.7266;;;;
44734;BME280;30462;52.446;-1.930;2022-07-29T01:09:18;100448.3086;;;;
44734;BME280;30462;52.446;-1.930;2022-07-29T01:10:18;100449.0234;;;;
44734;BME280;30462;52.446;-1.930;2022-07-29T01:11:18;100446.1523;;;;
44734;BME280;30462;52.446;-1.930;2022-07-29T01:12:18;100446.7188;;;;
44734;BME280;30462;52.446;-1.930;2022-07-29T01:13:18;100444.5938;;;;
44734;BME280;30462;52.446;-1.930;2022-07-29T01:14:18;100443.2344;;;;
44734;BME280;30462;52.446;-1.930;2022-07-29T01:15:18;100442.7422;;;;
44734;BME280;30462;52.446;-1.930;2022-07-29T01:16:21;100442.9609;;;;
44734;BME280;30462;52.446;-1.930;2022-07-29T01:17:20;100440.5391;;;;
44734;BME280;30462;52.446;-1.930;2022-07-29T01:18:20;100436.5352;;;;
44734;BME280;30462;52.446;-1.930;2022-07-29T01:20:20;100439.5;;;;
44734;BME280;30462;52.446;-1.930;2022-07-29T01:25:22;100445.0547;;;;
44734;BME280;30462;52.446;-1.930;2022-07-29T01:30:18;100442.7773;;;;
44734;BME280;30462;52.446;-1.930;2022-07-29T01:31:20;100444.7227;;;;
44734;BME280;30462;52.446;-1.930;2022-07-29T01:32:19;100441.0313;;;;
44734;BME280;30462;52.446;-1.930;2022-07-29T01:33:18;100444.3164;;;;
44734;BME280;30462;52.446;-1.930;2022-07-29T01:34:20;100445.6836;;;;
44734;BME280;30462;52.446;-1.930;2022-07-29T01:35:24;100445.6836;;;;
44734;BME280;30462;52.446;-1.930;2022-07-29T01:36:18;100446.4766;;;;
44734;BME280;30462;52.446;-1.930;2022-07-29T01:37:18;100445.4961;;;;
44734;BME280;30462;52.446;-1.930;2022-07-29T01:38:19;100447.5703;;;;
44734;BME280;30462;52.446;-1.930;2022-07-29T01:39:19;100449.5469;;;;
44734;BME280;30462;52.446;-1.930;2022-07-29T01:40:19;100449.5156;;;;
44734;BME280;30462;52.446;-1.930;2022-07-29T01:41:18;100447.8203;;;;
44734;BME280;30462;52.446;-1.930;2022-07-29T01:42:21;100447.4219;;;;
44734;BME280;30462;52.446;-1.930;2022-07-29T01:43:19;100447.3125;;;;
44734;BME280;30462;52.446;-1.930;2022-07-29T01:44:19;100444.1602;;;;
44734;BME280;30462;52.446;-1.930;2022-07-29T01:45:19;100444.6875;;;;
44734;BME280;30462;52.446;-1.930;2022-07-29T01:46:20;100447.4102;;;;
44734;BME280;30462;52.446;-1.930;2022-07-29T01:47:19;100445.043;;;;
44734;BME280;30462;52.446;-1.930;2022-07-29T01:48:18;100446.5117;;;;
44734;BME280;30462;52.446;-1.930;2022-07-29T01:49:20;100444.8516;;;;
44734;BME280;30462;52.446;-1.930;2022-07-29T01:50:18;100449.5898;;;;
44734;BME280;30462;52.446;-1.930;2022-07-29T01:51:19;100448.625;;;;
44734;BME280;30462;52.446;-1.930;2022-07-29T01:52:20;100445.0313;;;;
44734;BME280;30462;52.446;-1.930;2022-07-29T01:53:21;100444.4023;;;;
44734;BME280;30462;52.446;-1.930;2022-07-29T01:54:21;100446.8672;;;;
44734;BME280;30462;52.446;-1.930;2022-07-29T01:55:18;100447.8516;;;;
44734;BME280;30462;52.446;-1.930;2022-07-29T01:56:18;100448.4531;;;;
44734;BME280;30462;52.446;-1.930;2022-07-29T01:57:18;100449.2461;;;;
44734;BME280;30462;52.446;-1.930;2022-07-29T01:58:18;100451.9609;;;;
44734;BME280;30462;52.446;-1.930;2022-07-29T01:59:18;100454.4102;;;;
44734;BME280;30462;52.446;-1.930;2022-07-29T02:00:18;100453.9102;;;;
44734;BME280;30462;52.446;-1.930;2022-07-29T02:01:18;100454.8008;;;;
44734;BME280;30462;52.446;-1.930;2022-07-29T02:02:18;100451.1992;;;;
44734;BME280;30462;52.446;-1.930;2022-07-29T02:03:18;100448.1094;;;;
44734;BME280;30462;52.446;-1.930;2022-07-29T02:04:18;100446.418;;;;
44734;BME280;30462;52.446;-1.930;2022-07-29T02:05:18;100445.1016;;;;
44734;BME280;30462;52.446;-1.930;2022-07-29T02:06:19;100442.8398;;;;
44734;BME280;30462;52.446;-1.930;2022-07-29T02:07:19;100444.8867;;;;
44734;BME280;30462;52.446;-1.930;2022-07-29T02:08:19;100443.1523;;;;
44734;BME280;30462;52.446;-1.930;2022-07-29T02:09:17;100444.1094;;;;
44734;BME280;30462;52.446;-1.930;2022-07-29T02:10:21;100445.4453;;;;
44734;BME280;30462;52.446;-1.930;2022-07-29T02:11:18;100445.543;;;;
44734;BME280;30462;52.446;-1.930;2022-07-29T02:12:18;100444.832;;;;
44734;BME280;30462;52.446;-1.930;2022-07-29T02:13:18;100445.3867;;;;
44734;BME280;30462;52.446;-1.930;2022-07-29T02:14:19;100447.4844;;;;
44734;BME280;30462;52.446;-1.930;2022-07-29T02:15:18;100447.7383;;;;
44734;BME280;30462;52.446;-1.930;2022-07-29T02:16:17;100449.3906;;;;
44734;BME280;30462;52.446;-1.930;2022-07-29T02:17:19;100450.9102;;;;
44734;BME280;30462;52.446;-1.930;2022-07-29T02:18:18;100453.2109;;;;
44734;BME280;30462;52.446;-1.930;2022-07-29T02:19:18;100450.6172;;;;
44734;BME280;30462;52.446;-1.930;2022-07-29T02:20:18;100448.3477;;;;
44734;BME280;30462;52.446;-1.930;2022-07-29T02:21:19;100445.5781;;;;
44734;BME280;30462;52.446;-1.930;2022-07-29T02:22:18;100446.8359;;;;
44734;BME280;30462;52.446;-1.930;2022-07-29T02:23:19;100445.7852;;;;
44734;BME280;30462;52.446;-1.930;2022-07-29T02:24:17;100445.8984;;;;
44734;BME280;30462;52.446;-1.930;2022-07-29T02:25:18;100445.7852;;;;
44734;BME280;30462;52.446;-1.930;2022-07-29T02:26:18;100444.7305;;;;
44734;BME280;30462;52.446;-1.930;2022-07-29T02:27:18;100446.9922;;;;
44734;BME280;30462;52.446;-1.930;2022-07-29T02:28:17;100444.7188;;;;
44734;BME280;30462;52.446;-1.930;2022-07-29T02:29:18;100446.3789;;;;
44734;BME280;30462;52.446;-1.930;2022-07-29T02:30:18;100448.8047;;;;
44734;BME280;30462;52.446;-1.930;2022-07-29T02:31:18;100444.7891;;;;
44734;BME280;30462;52.446;-1.930;2022-07-29T02:32:18;100445.8242;;;;
44734;BME280;30462;52.446;-1.930;2022-07-29T02:33:18;100446.0078;;;;
44734;BME280;30462;52.446;-1.930;2022-07-29T02:34:18;100445.7852;;;;
44734;BME280;30462;52.446;-1.930;2022-07-29T02:35:18;100447.5898;;;;
44734;BME280;30462;52.446;-1.930;2022-07-29T02:36:18;100449.4414;;;;
44734;BME280;30462;52.446;-1.930;2022-07-29T02:37:18;100452.5977;;;;
44734;BME280;30462;52.446;-1.930;2022-07-29T02:38:18;100453.9063;;;;
44734;BME280;30462;52.446;-1.930;2022-07-29T02:39:18;100452.8633;;;;
44734;BME280;30462;52.446;-1.930;2022-07-29T02:40:18;100454.1953;;;;
44734;BME280;30462;52.446;-1.930;2022-07-29T02:41:19;100454.8633;;;;
44734;BME280;30462;52.446;-1.930;2022-07-29T02:42:18;100451.5352;;;;
44734;BME280;30462;52.446;-1.930;2022-07-29T02:43:18;100451.6719;;;;
44734;BME280;30462;52.446;-1.930;2022-07-29T02:44:20;100449.1523;;;;
44734;BME280;30462;52.446;-1.930;2022-07-29T02:45:18;100453.625;;;;
44734;BME280;30462;52.446;-1.930;2022-07-29T02:46:19;100451.125;;;;
44734;BME280;30462;52.446;-1.930;2022-07-29T02:47:20;100450.6328;;;;
44734;BME280;30462;52.446;-1.930;2022-07-29T02:48:18;100450.5469;;;;
44734;BME280;30462;52.446;-1.930;2022-07-29T02:49:21;100451.0781;;;;
44734;BME280;30462;52.446;-1.930;2022-07-29T02:50:21;100450.4102;;;;
44734;BME280;30462;52.446;-1.930;2022-07-29T02:51:24;100451.6172;;;;
44734;BME280;30462;52.446;-1.930;2022-07-29T02:52:21;100448.3242;;;;
44734;BME280;30462;52.446;-1.930;2022-07-29T02:53:18;100447.4766;;;;
44734;BME280;30462;52.446;-1.930;2022-07-29T02:54:20;100446.9102;;;;
44734;BME280;30462;52.446;-1.930;2022-07-29T02:55:19;100446.1875;;;;
44734;BME280;30462;52.446;-1.930;2022-07-29T02:56:18;100448.4531;;;;
44734;BME280;30462;52.446;-1.930;2022-07-29T02:57:19;100448.4336;;;;
44734;BME280;30462;52.446;-1.930;2022-07-29T02:58:21;100449.1094;;;;
44734;BME280;30462;52.446;-1.930;2022-07-29T02:59:19;100448.2969;;;;
44734;BME280;30462;52.446;-1.930;2022-07-29T03:00:18;100444.7188;;;;
44734;BME280;30462;52.446;-1.930;2022-07-29T03:01:20;100445.3672;;;;
44734;BME280;30462;52.446;-1.930;2022-07-29T03:02:18;100445.2813;;;;
44734;BME280;30462;52.446;-1.930;2022-07-29T03:03:18;100443;;;;
44734;BME280;30462;52.446;-1.930;2022-07-29T03:04:18;100443.7813;;;;
44734;BME280;30462;52.446;-1.930;2022-07-29T03:05:18;100443.2383;;;;
44734;BME280;30462;52.446;-1.930;2022-07-29T03:06:18;100440.2227;;;;
44734;BME280;30462;52.446;-1.930;2022-07-29T03:07:18;100440.2852;;;;
44734;BME280;30462;52.446;-1.930;2022-07-29T03:08:18;100443.5039;;;;
44734;BME280;30462;52.446;-1.930;2022-07-29T03:09:18;100442.7148;;;;
44734;BME280;30462;52.446;-1.930;2022-07-29T03:10:18;100439.9961;;;;
44734;BME280;30462;52.446;-1.930;2022-07-29T03:11:18;100443.8477;;;;
44734;BME280;30462;52.446;-1.930;2022-07-29T03:12:18;100441.582;;;;
44734;BME280;30462;52.446;-1.930;2022-07-29T03:13:18;100444.4766;;;;
44734;BME280;30462;52.446;-1.930;2022-07-29T03:14:18;100445.5977;;;;
44734;BME280;30462;52.446;-1.930;2022-07-29T03:15:18;100446.8242;;;;
44734;BME280;30462;52.446;-1.930;2022-07-29T03:16:18;100444.1523;;;;
44734;BME280;30462;52.446;-1.930;2022-07-29T03:17:18;100445.7109;;;;
44734;BME280;30462;52.446;-1.930;2022-07-29T03:18:18;100439.8633;;;;
44734;BME280;30462;52.446;-1.930;2022-07-29T03:19:18;100446.7266;;;;
44734;BME280;30462;52.446;-1.930;2022-07-29T03:20:18;100448.6055;;;;
44734;BME280;30462;52.446;-1.930;2022-07-29T03:21:18;100444.5547;;;;
44734;BME280;30462;52.446;-1.930;2022-07-29T03:22:18;100448.168;;;;
44734;BME280;30462;52.446;-1.930;2022-07-29T03:23:18;100446.5664;;;;
44734;BME280;30462;52.446;-1.930;2022-07-29T03:25:19;100446.5664;;;;
44734;BME280;30462;52.446;-1.930;2022-07-29T03:26:18;100447.1016;;;;
44734;BME280;30462;52.446;-1.930;2022-07-29T03:27:18;100447.4531;;;;
44734;BME280;30462;52.446;-1.930;2022-07-29T03:28:18;100447.7578;;;;
44734;BME280;30462;52.446;-1.930;2022-07-29T03:29:18;100443.9336;;;;
44734;BME280;30462;52.446;-1.930;2022-07-29T03:30:18;100446.1328;;;;
44734;BME280;30462;52.446;-1.930;2022-07-29T03:31:18;100441.9805;;;;
44734;BME280;30462;52.446;-1.930;2022-07-29T03:32:18;100445.332;;;;
44734;BME280;30462;52.446;-1.930;2022-07-29T03:33:18;100444.543;;;;
44734;BME280;30462;52.446;-1.930;2022-07-29T03:34:18;100445.5781;;;;
44734;BME280;30462;52.446;-1.930;2022-07-29T03:35:18;100446.4805;;;;
44734;BME280;30462;52.446;-1.930;2022-07-29T03:36:18;100444.9336;;;;
44734;BME280;30462;52.446;-1.930;2022-07-29T03:37:18;100446.543;;;;
44734;BME280;30462;52.446;-1.930;2022-07-29T03:38:18;100444.5078;;;;
44734;BME280;30462;52.446;-1.930;2022-07-29T03:39:20;100441.7227;;;;
44734;BME280;30462;52.446;-1.930;2022-07-29T03:40:18;100445.2539;;;;
44734;BME280;30462;52.446;-1.930;2022-07-29T03:41:18;100445.1953;;;;
44734;BME280;30462;52.446;-1.930;2022-07-29T03:42:18;100447.2227;;;;
44734;BME280;30462;52.446;-1.930;2022-07-29T03:43:17;100450.7695;;;;
44734;BME280;30462;52.446;-1.930;2022-07-29T03:44:18;100451.5039;;;;
44734;BME280;30462;52.446;-1.930;2022-07-29T03:45:18;100448.8867;;;;
44734;BME280;30462;52.446;-1.930;2022-07-29T03:46:18;100448.3867;;;;
44734;BME280;30462;52.446;-1.930;2022-07-29T03:47:18;100448.1602;;;;
44734;BME280;30462;52.446;-1.930;2022-07-29T03:48:19;100451.1289;;;;
44734;BME280;30462;52.446;-1.930;2022-07-29T03:49:18;100454.7852;;;;
44734;BME280;30462;52.446;-1.930;2022-07-29T03:50:18;100450.9102;;;;
44734;BME280;30462;52.446;-1.930;2022-07-29T03:51:17;100455.0703;;;;
44734;BME280;30462;52.446;-1.930;2022-07-29T03:52:18;100460.9258;;;;
44734;BME280;30462;52.446;-1.930;2022-07-29T03:53:18;100458.7773;;;;
44734;BME280;30462;52.446;-1.930;2022-07-29T03:54:18;100458.875;;;;
44734;BME280;30462;52.446;-1.930;2022-07-29T03:55:18;100457.8203;;;;
44734;BME280;30462;52.446;-1.930;2022-07-29T03:56:18;100459.332;;;;
44734;BME280;30462;52.446;-1.930;2022-07-29T03:57:18;100462.6953;;;;
44734;BME280;30462;52.446;-1.930;2022-07-29T03:58:18;100459.2109;;;;
44734;BME280;30462;52.446;-1.930;2022-07-29T03:59:18;100461.9453;;;;
44734;BME280;30462;52.446;-1.930;2022-07-29T04:00:18;100462.8125;;;;
44734;BME280;30462;52.446;-1.930;2022-07-29T04:01:18;100462.8125;;;;
44734;BME280;30462;52.446;-1.930;2022-07-29T04:02:17;100463.1992;;;;
44734;BME280;30462;52.446;-1.930;2022-07-29T04:03:18;100459.5352;;;;
44734;BME280;30462;52.446;-1.930;2022-07-29T04:04:18;100464.1641;;;;
44734;BME280;30462;52.446;-1.930;2022-07-29T04:05:18;100465.5469;;;;
44734;BME280;30462;52.446;-1.930;2022-07-29T04:06:18;100464.9648;;;;
44734;BME280;30462;52.446;-1.930;2022-07-29T04:07:18;100462.9883;;;;
44734;BME280;30462;52.446;-1.930;2022-07-29T04:08:18;100460.6406;;;;
44734;BME280;30462;52.446;-1.930;2022-07-29T04:09:18;100462.6484;;;;
44734;BME280;30462;52.446;-1.930;2022-07-29T04:10:18;100460.5859;;;;
44734;BME280;30462;52.446;-1.930;2022-07-29T04:11:18;100460.5781;;;;
44734;BME280;30462;52.446;-1.930;2022-07-29T04:12:18;100459.293;;;;
44734;BME280;30462;52.446;-1.930;2022-07-29T04:13:18;100458.7656;;;;
44734;BME280;30462;52.446;-1.930;2022-07-29T04:14:17;100461.0742;;;;
44734;BME280;30462;52.446;-1.930;2022-07-29T04:15:18;100460.5469;;;;
44734;BME280;30462;52.446;-1.930;2022-07-29T04:16:18;100459.2813;;;;
44734;BME280;30462;52.446;-1.930;2022-07-29T04:17:18;100461.5234;;;;
44734;BME280;30462;52.446;-1.930;2022-07-29T04:18:18;100462.6641;;;;
44734;BME280;30462;52.446;-1.930;2022-07-29T04:19:18;100461.3008;;;;
44734;BME280;30462;52.446;-1.930;2022-07-29T04:20:18;100460.8164;;;;
44734;BME280;30462;52.446;-1.930;2022-07-29T04:21:18;100465.8008;;;;
44734;BME280;30462;52.446;-1.930;2022-07-29T04:22:18;100466.0313;;;;
44734;BME280;30462;52.446;-1.930;2022-07-29T04:23:18;100464.5117;;;;
44734;BME280;30462;52.446;-1.930;2022-07-29T04:24:18;100463.2422;;;;
44734;BME280;30462;52.446;-1.930;2022-07-29T04:25:18;100466.7656;;;;
44734;BME280;30462;52.446;-1.930;2022-07-29T04:26:18;100464.168;;;;
44734;BME280;30462;52.446;-1.930;2022-07-29T04:27:18;100465.5938;;;;
44734;BME280;30462;52.446;-1.930;2022-07-29T04:28:18;100467.4805;;;;
44734;BME280;30462;52.446;-1.930;2022-07-29T04:29:18;100464.6211;;;;
44734;BME280;30462;52.446;-1.930;2022-07-29T04:30:17;100468.0508;;;;
44734;BME280;30462;52.446;-1.930;2022-07-29T04:31:18;100471.457;;;;
44734;BME280;30462;52.446;-1.930;2022-07-29T04:32:18;100472.1172;;;;
44734;BME280;30462;52.446;-1.930;2022-07-29T04:33:18;100470.6289;;;;
44734;BME280;30462;52.446;-1.930;2022-07-29T04:34:18;100474.0195;;;;
44734;BME280;30462;52.446;-1.930;2022-07-29T04:35:18;100472.0078;;;;
44734;BME280;30462;52.446;-1.930;2022-07-29T04:36:18;100470.7344;;;;
44734;BME280;30462;52.446;-1.930;2022-07-29T04:37:18;100471.2813;;;;
44734;BME280;30462;52.446;-1.930;2022-07-29T04:38:18;100471.4883;;;;
44734;BME280;30462;52.446;-1.930;2022-07-29T04:39:18;100470.7031;;;;
44734;BME280;30462;52.446;-1.930;2022-07-29T04:40:18;100471.8281;;;;
44734;BME280;30462;52.446;-1.930;2022-07-29T04:41:18;100471.2813;;;;
44734;BME280;30462;52.446;-1.930;2022-07-29T04:42:18;100470;;;;
44734;BME280;30462;52.446;-1.930;2022-07-29T04:43:18;100469.6406;;;;
44734;BME280;30462;52.446;-1.930;2022-07-29T04:44:18;100470.1875;;;;
44734;BME280;30462;52.446;-1.930;2022-07-29T04:45:18;100471.2305;;;;
44734;BME280;30462;52.446;-1.930;2022-07-29T04:46:18;100474.4297;;;;
44734;BME280;30462;52.446;-1.930;2022-07-29T04:47:18;100473.0039;;;;
44734;BME280;30462;52.446;-1.930;2022-07-29T04:48:18;100471.2188;;;;
44734;BME280;30462;52.446;-1.930;2022-07-29T04:49:18;100469.6328;;;;
44734;BME280;30462;52.446;-1.930;2022-07-29T04:50:18;100471.4414;;;;
44734;BME280;30462;52.446;-1.930;2022-07-29T04:51:18;100466.5352;;;;
44734;BME280;30462;52.446;-1.930;2022-07-29T04:52:18;100468.5273;;;;
44734;BME280;30462;52.446;-1.930;2022-07-29T04:53:18;100469.3945;;;;
44734;BME280;30462;52.446;-1.930;2022-07-29T04:54:17;100468.2344;;;;
44734;BME280;30462;52.446;-1.930;2022-07-29T04:55:18;100467.25;;;;
44734;BME280;30462;52.446;-1.930;2022-07-29T04:56:18;100470.7188;;;;
44734;BME280;30462;52.446;-1.930;2022-07-29T04:57:18;100472.8164;;;;
44734;BME280;30462;52.446;-1.930;2022-07-29T04:58:18;100475.4844;;;;
44734;BME280;30462;52.446;-1.930;2022-07-29T04:59:17;100472.5;;;;
44734;BME280;30462;52.446;-1.930;2022-07-29T05:00:18;100473.043;;;;
44734;BME280;30462;52.446;-1.930;2022-07-29T05:01:18;100474.9805;;;;
44734;BME280;30462;52.446;-1.930;2022-07-29T05:02:18;100474.457;;;;
44734;BME280;30462;52.446;-1.930;2022-07-29T05:03:18;100475.4336;;;;
44734;BME280;30462;52.446;-1.930;2022-07-29T05:04:18;100475.043;;;;
44734;BME280;30462;52.446;-1.930;2022-07-29T05:05:18;100480.3008;;;;
44734;BME280;30462;52.446;-1.930;2022-07-29T05:06:18;100479.9023;;;;
44734;BME280;30462;52.446;-1.930;2022-07-29T05:07:18;100481.5195;;;;
44734;BME280;30462;52.446;-1.930;2022-07-29T05:08:17;100485.9609;;;;
44734;BME280;30462;52.446;-1.930;2022-07-29T05:09:18;100486.4375;;;;
44734;BME280;30462;52.446;-1.930;2022-07-29T05:10:18;100484.6406;;;;
44734;BME280;30462;52.446;-1.930;2022-07-29T05:11:18;100485.9531;;;;
44734;BME280;30462;52.446;-1.930;2022-07-29T05:12:18;100487.668;;;;
44734;BME280;30462;52.446;-1.930;2022-07-29T05:13:18;100489.0078;;;;
44734;BME280;30462;52.446;-1.930;2022-07-29T05:14:18;100483.7773;;;;
44734;BME280;30462;52.446;-1.930;2022-07-29T05:15:18;100489.3398;;;;
44734;BME280;30462;52.446;-1.930;2022-07-29T05:16:18;100488.2344;;;;
44734;BME280;30462;52.446;-1.930;2022-07-29T05:17:18;100487.9531;;;;
44734;BME280;30462;52.446;-1.930;2022-07-29T05:18:17;100492.5391;;;;
44734;BME280;30462;52.446;-1.930;2022-07-29T05:19:18;100491.4453;;;;
44734;BME280;30462;52.446;-1.930;2022-07-29T05:20:18;100492.1758;;;;
44734;BME280;30462;52.446;-1.930;2022-07-29T05:21:18;100492.3164;;;;
44734;BME280;30462;52.446;-1.930;2022-07-29T05:22:18;100493.043;;;;
44734;BME280;30462;52.446;-1.930;2022-07-29T05:23:17;100493.3906;;;;
44734;BME280;30462;52.446;-1.930;2022-07-29T05:24:18;100494.3516;;;;
44734;BME280;30462;52.446;-1.930;2022-07-29T05:25:18;100497.375;;;;
44734;BME280;30462;52.446;-1.930;2022-07-29T05:26:17;100497.043;;;;
44734;BME280;30462;52.446;-1.930;2022-07-29T05:27:18;100494.4297;;;;
44734;BME280;30462;52.446;-1.930;2022-07-29T05:28:18;100493.6016;;;;
44734;BME280;30462;52.446;-1.930;2022-07-29T05:29:18;100495.0898;;;;
44734;BME280;30462;52.446;-1.930;2022-07-29T05:30:18;100496.8086;;;;
44734;BME280;30462;52.446;-1.930;2022-07-29T05:31:18;100498.8477;;;;
44734;BME280;30462;52.446;-1.930;2022-07-29T05:32:17;100495.7344;;;;
44734;BME280;30462;52.446;-1.930;2022-07-29T05:33:18;100498.3984;;;;
44734;BME280;30462;52.446;-1.930;2022-07-29T05:34:18;100495.6914;;;;
44734;BME280;30462;52.446;-1.930;2022-07-29T05:35:18;100497.1172;;;;
44734;BME280;30462;52.446;-1.930;2022-07-29T05:36:18;100497.543;;;;
44734;BME280;30462;52.446;-1.930;2022-07-29T05:37:18;100494.8438;;;;
44734;BME280;30462;52.446;-1.930;2022-07-29T05:38:18;100498.543;;;;
44734;BME280;30462;52.446;-1.930;2022-07-29T05:39:18;100499.8867;;;;
44734;BME280;30462;52.446;-1.930;2022-07-29T05:40:18;100497.8555;;;;
44734;BME280;30462;52.446;-1.930;2022-07-29T05:41:18;100499.6758;;;;
44734;BME280;30462;52.446;-1.930;2022-07-29T05:42:18;100501.2188;;;;
44734;BME280;30462;52.446;-1.930;2022-07-29T05:43:18;100500.4883;;;;
44734;BME280;30462;52.446;-1.930;2022-07-29T05:44:18;100505.9023;;;;
44734;BME280;30462;52.446;-1.930;2022-07-29T05:45:18;100504.3203;;;;
44734;BME280;30462;52.446;-1.930;2022-07-29T05:46:18;100507.5156;;;;
44734;BME280;30462;52.446;-1.930;2022-07-29T05:47:18;100507.4414;;;;
44734;BME280;30462;52.446;-1.930;2022-07-29T05:48:17;100506.5156;;;;
44734;BME280;30462;52.446;-1.930;2022-07-29T05:49:18;100511.6953;;;;
44734;BME280;30462;52.446;-1.930;2022-07-29T05:50:18;100512.3594;;;;
44734;BME280;30462;52.446;-1.930;2022-07-29T05:51:18;100511.2148;;;;
44734;BME280;30462;52.446;-1.930;2022-07-29T05:52:18;100516.7109;;;;
44734;BME280;30462;52.446;-1.930;2022-07-29T05:53:17;100512.4531;;;;
44734;BME280;30462;52.446;-1.930;2022-07-29T05:54:18;100513.457;;;;
44734;BME280;30462;52.446;-1.930;2022-07-29T05:55:18;100513.8281;;;;
44734;BME280;30462;52.446;-1.930;2022-07-29T05:56:17;100513.7305;;;;